Time;durP1;ratioP1;P1;durP2;ratioP2;P2;SDS_P1;SDS_P2;PMS_P1;PMS_P2;Temp;Humidity;BMP_temperature;BMP_pressure;BME280_temperature;BME280_humidity;BME280_pressure;Samples;Min_cycle;Max_cycle;Signal;HPM_P1;HPM_P2
2021/11/15 00:01:14;;;;;;;3.10;1.77;;;9.20;90.80;;;;;;4933864;29;20048;-78
2021/11/15 00:03:42;;;;;;;2.78;1.58;;;9.10;90.80;;;;;;4920040;29;20036;-78
2021/11/15 00:06:08;;;;;;;3.33;1.67;;;9.20;90.80;;;;;;4936460;29;20047;-78
2021/11/15 00:08:34;;;;;;;2.60;1.50;;;9.20;90.80;;;;;;4919085;29;20091;-78
2021/11/15 00:11:00;;;;;;;4.57;1.80;;;9.10;90.80;;;;;;4935459;29;20043;-78
2021/11/15 00:13:26;;;;;;;3.13;1.83;;;9.20;90.80;;;;;;4919094;29;20185;-78
2021/11/15 00:15:52;;;;;;;3.35;1.70;;;9.10;90.80;;;;;;4918689;29;20086;-78
2021/11/15 00:18:18;;;;;;;3.30;1.83;;;9.10;90.80;;;;;;4935778;29;20039;-78
2021/11/15 00:20:44;;;;;;;3.60;1.77;;;9.10;90.80;;;;;;4934018;29;20035;-78
2021/11/15 00:23:09;;;;;;;4.53;2.10;;;9.00;90.80;;;;;;4935991;29;20482;-78
2021/11/15 00:25:35;;;;;;;3.83;1.98;;;9.10;90.80;;;;;;4918647;29;20079;-78
2021/11/15 00:28:01;;;;;;;4.07;2.10;;;9.10;90.80;;;;;;4918373;29;20048;-78
2021/11/15 00:30:27;;;;;;;3.65;1.92;;;9.10;90.80;;;;;;4935913;29;20510;-78
2021/11/15 00:32:53;;;;;;;3.67;1.80;;;9.00;90.70;;;;;;4933653;29;20047;-78
2021/11/15 00:35:19;;;;;;;4.53;2.03;;;9.10;90.80;;;;;;4918985;29;20074;-78
2021/11/15 00:37:45;;;;;;;3.72;1.98;;;9.00;90.80;;;;;;4918728;29;20613;-78
2021/11/15 00:40:14;;;;;;;3.58;2.00;;;9.00;90.80;;;;;;4935298;29;20114;-78
2021/11/15 00:42:41;;;;;;;3.83;1.85;;;9.10;90.80;;;;;;4936556;29;20131;-78
2021/11/15 00:45:09;;;;;;;3.55;1.77;;;9.00;90.80;;;;;;4936037;29;20051;-78
2021/11/15 00:47:35;;;;;;;3.35;1.70;;;9.00;90.80;;;;;;4935227;29;20091;-78
2021/11/15 00:50:03;;;;;;;2.80;1.60;;;9.00;90.80;;;;;;4936123;29;20044;-78
2021/11/15 00:52:29;;;;;;;3.33;1.85;;;9.00;90.80;;;;;;4936357;29;20515;-78
2021/11/15 00:54:55;;;;;;;3.72;1.90;;;9.00;90.80;;;;;;4935594;29;20190;-78
2021/11/15 00:57:21;;;;;;;4.30;2.00;;;9.00;90.80;;;;;;4918811;29;20044;-77
2021/11/15 00:59:48;;;;;;;2.90;1.52;;;9.00;90.80;;;;;;4919003;29;20508;-77
2021/11/15 01:02:15;;;;;;;3.45;1.70;;;9.00;90.80;;;;;;4935668;29;20499;-77
2021/11/15 01:04:40;;;;;;;5.32;2.30;;;9.00;90.80;;;;;;4935683;29;20055;-78
2021/11/15 01:07:06;;;;;;;3.83;1.88;;;9.00;90.80;;;;;;4918407;29;20035;-77
2021/11/15 01:09:32;;;;;;;3.90;1.98;;;8.90;90.80;;;;;;4918508;29;20036;-77
2021/11/15 01:11:58;;;;;;;3.55;1.80;;;8.90;90.80;;;;;;4935529;29;20067;-77
2021/11/15 01:14:23;;;;;;;3.75;1.88;;;8.90;90.80;;;;;;4918158;29;20407;-77
2021/11/15 01:16:51;;;;;;;2.72;1.58;;;8.90;90.80;;;;;;4917589;29;20517;-78
2021/11/15 01:19:17;;;;;;;3.65;1.60;;;8.90;90.80;;;;;;4934663;29;20065;-78
2021/11/15 01:21:43;;;;;;;4.32;2.20;;;8.90;90.80;;;;;;4917355;29;20071;-78
2021/11/15 01:24:10;;;;;;;2.72;1.67;;;8.90;90.80;;;;;;4934364;29;20039;-78
2021/11/15 01:26:37;;;;;;;4.65;2.10;;;8.90;90.80;;;;;;4931251;29;20047;-78
2021/11/15 01:29:04;;;;;;;4.53;2.00;;;8.80;90.80;;;;;;4932529;29;20402;-78
2021/11/15 01:31:29;;;;;;;3.95;1.92;;;8.80;90.80;;;;;;4917527;29;20047;-78
2021/11/15 01:33:55;;;;;;;5.18;1.90;;;9.00;90.80;;;;;;4931448;29;20050;-77
2021/11/15 01:36:21;;;;;;;4.10;2.05;;;8.80;90.80;;;;;;4934778;29;20051;-78
2021/11/15 01:38:47;;;;;;;3.63;1.80;;;8.90;90.80;;;;;;4917398;29;20458;-78
2021/11/15 01:41:13;;;;;;;3.60;1.60;;;8.80;90.80;;;;;;4917498;29;20051;-78
2021/11/15 01:43:39;;;;;;;2.63;1.60;;;8.80;91.00;;;;;;4934488;29;20125;-78
2021/11/15 01:46:05;;;;;;;2.90;1.70;;;8.90;90.80;;;;;;4932938;29;20040;-78
2021/11/15 01:48:31;;;;;;;3.80;1.90;;;8.80;91.00;;;;;;4933029;29;20052;-78
2021/11/15 01:50:57;;;;;;;3.25;1.60;;;8.70;90.80;;;;;;4918084;29;20058;-78
2021/11/15 01:53:23;;;;;;;3.67;2.00;;;9.00;90.80;;;;;;4918155;29;20066;-77
2021/11/15 01:55:49;;;;;;;2.75;1.65;;;8.80;90.80;;;;;;4934921;29;20054;-78
2021/11/15 01:58:16;;;;;;;4.55;2.15;;;8.90;90.80;;;;;;4917412;29;20039;-77
2021/11/15 02:00:50;;;;;;;3.50;1.75;;;8.70;90.80;;;;;;4934619;29;20039;-78
2021/11/15 02:03:19;;;;;;;4.07;2.08;;;8.70;90.80;;;;;;4918590;29;20111;-77
2021/11/15 02:05:45;;;;;;;3.72;1.98;;;8.70;90.80;;;;;;4917283;29;20062;-78
2021/11/15 02:08:11;;;;;;;5.18;2.15;;;8.70;90.80;;;;;;4934581;29;20512;-78
2021/11/15 02:10:38;;;;;;;3.42;2.00;;;8.70;90.80;;;;;;4934741;29;20134;-78
2021/11/15 02:13:05;;;;;;;4.97;2.28;;;8.60;90.80;;;;;;4931147;29;20051;-78
2021/11/15 02:15:30;;;;;;;4.32;1.92;;;8.70;90.80;;;;;;4934650;29;20476;-78
2021/11/15 02:17:56;;;;;;;2.90;1.60;;;8.70;90.80;;;;;;4933793;29;20127;-78
2021/11/15 02:20:24;;;;;;;3.63;1.92;;;8.70;90.80;;;;;;4933914;29;20043;-78
2021/11/15 02:22:52;;;;;;;3.65;2.22;;;8.60;90.80;;;;;;4933827;29;20048;-78
2021/11/15 02:25:22;;;;;;;5.03;2.03;;;8.60;90.80;;;;;;4917707;29;20044;-78
2021/11/15 02:27:49;;;;;;;4.10;2.10;;;8.60;90.80;;;;;;4934212;29;20048;-78
2021/11/15 02:30:20;;;;;;;4.50;2.28;;;8.60;90.80;;;;;;4917075;29;20051;-78
2021/11/15 02:32:46;;;;;;;3.95;2.20;;;8.60;90.80;;;;;;4934153;29;20099;-78
2021/11/15 02:35:14;;;;;;;3.80;1.98;;;8.60;90.80;;;;;;4937258;29;20040;-78
2021/11/15 02:37:40;;;;;;;5.47;2.25;;;8.60;90.80;;;;;;4937376;29;20076;-78
2021/11/15 02:40:09;;;;;;;4.30;1.80;;;8.60;90.80;;;;;;4937545;29;20051;-78
2021/11/15 02:42:35;;;;;;;4.45;2.00;;;8.50;90.80;;;;;;4936878;29;20488;-78
2021/11/15 02:45:03;;;;;;;4.07;1.90;;;8.50;90.80;;;;;;4920021;29;20434;-78
2021/11/15 02:47:29;;;;;;;3.60;1.83;;;8.60;90.80;;;;;;4937335;29;20044;-78
2021/11/15 02:49:56;;;;;;;3.28;1.80;;;8.50;90.80;;;;;;4919993;29;20071;-78
2021/11/15 02:52:22;;;;;;;2.97;1.70;;;8.60;90.80;;;;;;4920035;29;20032;-78
2021/11/15 02:54:47;;;;;;;4.22;1.70;;;8.60;90.90;;;;;;4937756;29;20036;-78
2021/11/15 02:57:17;;;;;;;3.88;1.98;;;8.50;90.80;;;;;;4937338;29;20517;-79
2021/11/15 02:59:44;;;;;;;4.57;1.98;;;8.80;90.90;;;;;;4935640;29;20494;-78
2021/11/15 03:02:10;;;;;;;5.28;2.35;;;8.50;90.80;;;;;;4920543;29;20054;-78
2021/11/15 03:04:37;;;;;;;4.68;2.55;;;8.60;90.90;;;;;;4937435;29;20067;-78
2021/11/15 03:07:03;;;;;;;4.47;2.25;;;8.50;90.80;;;;;;4937026;29;20477;-79
2021/11/15 03:09:29;;;;;;;4.15;2.00;;;8.50;90.80;;;;;;4920042;29;20123;-79
2021/11/15 03:11:56;;;;;;;4.25;2.20;;;8.50;90.80;;;;;;4936816;29;20106;-78
2021/11/15 03:14:22;;;;;;;4.63;2.08;;;8.50;90.80;;;;;;4936853;29;20058;-78
2021/11/15 03:16:48;;;;;;;4.28;2.17;;;8.40;90.80;;;;;;4935039;29;20043;-78
2021/11/15 03:19:14;;;;;;;4.53;2.13;;;8.40;90.80;;;;;;4936639;29;20043;-78
2021/11/15 03:21:40;;;;;;;4.32;2.15;;;8.40;90.80;;;;;;4934436;29;20040;-78
2021/11/15 03:24:06;;;;;;;3.28;1.73;;;8.50;90.90;;;;;;4937068;29;20129;-78
2021/11/15 03:26:32;;;;;;;4.03;2.00;;;8.40;90.80;;;;;;4936467;29;20495;-78
2021/11/15 03:28:59;;;;;;;3.60;1.80;;;8.50;90.90;;;;;;4934552;29;20074;-78
2021/11/15 03:31:30;;;;;;;3.65;1.95;;;8.50;91.20;;;;;;4919902;29;20066;-78
2021/11/15 03:33:59;;;;;;;3.08;1.67;;;8.60;90.90;;;;;;4919741;29;20044;-78
2021/11/15 03:36:26;;;;;;;4.93;2.10;;;8.40;90.90;;;;;;4937004;29;20063;-78
2021/11/15 03:38:53;;;;;;;2.92;1.70;;;8.50;90.90;;;;;;4936221;29;20048;-78
2021/11/15 03:41:19;;;;;;;3.80;1.90;;;8.50;90.90;;;;;;4919658;29;20394;-78
2021/11/15 03:43:46;;;;;;;3.63;1.73;;;8.50;90.90;;;;;;4937027;29;20032;-78
2021/11/15 03:46:11;;;;;;;4.00;1.90;;;8.50;90.90;;;;;;4917026;29;20063;-79
2021/11/15 03:48:38;;;;;;;4.28;2.15;;;8.40;90.90;;;;;;4937024;29;20043;-78
2021/11/15 03:51:03;;;;;;;3.95;2.08;;;8.50;90.90;;;;;;4935333;29;20050;-78
2021/11/15 03:53:34;;;;;;;5.05;2.10;;;8.50;90.90;;;;;;4936562;29;20130;-78
2021/11/15 03:56:00;;;;;;;4.38;2.03;;;8.40;90.90;;;;;;4935255;29;20051;-78
2021/11/15 03:58:25;;;;;;;4.75;2.08;;;8.40;90.90;;;;;;4919900;29;20052;-78
2021/11/15 04:00:52;;;;;;;4.40;2.20;;;8.40;90.90;;;;;;4919296;29;20103;-78
2021/11/15 04:03:29;;;;;;;5.60;2.83;;;8.40;90.90;;;;;;4936809;29;20095;-78
2021/11/15 04:06:00;;;;;;;7.07;3.22;;;8.40;90.90;;;;;;4936170;29;20067;-78
2021/11/15 04:08:26;;;;;;;4.53;2.25;;;8.40;90.90;;;;;;4934323;29;20039;-77
2021/11/15 04:10:53;;;;;;;4.90;2.55;;;8.40;90.80;;;;;;4917140;29;20521;-78
2021/11/15 04:13:26;;;;;;;5.28;2.45;;;8.30;90.80;;;;;;4936131;29;20071;-77
2021/11/15 04:15:55;;;;;;;4.88;2.30;;;8.40;90.80;;;;;;4919507;29;20052;-77
2021/11/15 04:18:26;;;;;;;5.63;2.42;;;8.30;90.80;;;;;;4936273;29;20044;-77
2021/11/15 04:20:53;;;;;;;5.65;2.70;;;8.40;90.90;;;;;;4931956;29;20043;-78
2021/11/15 04:23:18;;;;;;;5.35;2.35;;;8.40;90.80;;;;;;4935726;29;20501;-78
2021/11/15 04:25:44;;;;;;;4.82;2.40;;;8.40;90.90;;;;;;4936056;29;20036;-78
2021/11/15 04:28:10;;;;;;;6.00;2.65;;;8.30;90.80;;;;;;4918596;29;20468;-78
2021/11/15 04:30:36;;;;;;;5.22;2.20;;;8.30;90.80;;;;;;4935402;29;20130;-78
2021/11/15 04:33:05;;;;;;;4.13;2.17;;;8.40;90.90;;;;;;4933429;29;20107;-78
2021/11/15 04:35:31;;;;;;;3.25;1.80;;;8.30;90.90;;;;;;4935759;29;20446;-78
2021/11/15 04:37:57;;;;;;;5.20;2.55;;;8.30;90.90;;;;;;4918646;29;20039;-77
2021/11/15 04:40:23;;;;;;;6.43;2.65;;;8.40;90.90;;;;;;4935369;29;20060;-78
2021/11/15 04:42:49;;;;;;;5.35;2.65;;;8.30;90.90;;;;;;4935754;29;20118;-78
2021/11/15 04:45:15;;;;;;;4.65;2.47;;;8.40;90.90;;;;;;4935358;29;20482;-77
2021/11/15 04:47:41;;;;;;;4.43;2.05;;;8.30;90.90;;;;;;4902053;29;20044;-78
2021/11/15 04:50:08;;;;;;;5.50;2.85;;;8.40;90.90;;;;;;4935484;29;20051;-78
2021/11/15 04:52:34;;;;;;;4.22;2.08;;;8.40;90.90;;;;;;4933979;29;20058;-78
2021/11/15 04:55:01;;;;;;;3.47;1.90;;;8.40;90.90;;;;;;4935059;29;20039;-78
2021/11/15 04:57:27;;;;;;;3.95;2.05;;;8.40;90.90;;;;;;4918370;29;20051;-78
2021/11/15 04:59:53;;;;;;;3.90;1.90;;;8.30;90.90;;;;;;4917987;29;20047;-78
2021/11/15 05:02:19;;;;;;;4.20;1.92;;;8.40;90.90;;;;;;4935123;29;20047;-78
2021/11/15 05:04:45;;;;;;;5.15;2.58;;;8.30;90.90;;;;;;4935174;29;20047;-78
2021/11/15 05:07:11;;;;;;;3.70;1.90;;;8.40;90.90;;;;;;4935495;29;20528;-78
2021/11/15 05:09:37;;;;;;;5.40;2.40;;;8.40;90.90;;;;;;4935546;29;20059;-78
2021/11/15 05:12:03;;;;;;;5.55;2.60;;;8.40;90.90;;;;;;4935668;29;20048;-78
2021/11/15 05:14:30;;;;;;;3.47;1.75;;;8.30;90.90;;;;;;4935037;29;20047;-78
2021/11/15 05:16:56;;;;;;;3.53;1.92;;;8.30;90.90;;;;;;4933171;29;20581;-78
2021/11/15 05:19:22;;;;;;;4.32;2.10;;;8.30;90.90;;;;;;4934867;29;20115;-78
2021/11/15 05:21:47;;;;;;;4.35;2.40;;;8.30;90.90;;;;;;4935276;29;20039;-78
2021/11/15 05:24:13;;;;;;;4.00;2.03;;;8.40;90.90;;;;;;4933548;29;20442;-78
2021/11/15 05:26:39;;;;;;;4.75;2.42;;;8.30;90.90;;;;;;4933410;29;20032;-78
2021/11/15 05:29:06;;;;;;;3.67;1.83;;;8.30;90.90;;;;;;4917874;29;20130;-78
2021/11/15 05:31:34;;;;;;;4.70;2.15;;;8.30;90.90;;;;;;4934898;29;20138;-78
2021/11/15 05:34:02;;;;;;;4.32;2.28;;;8.30;90.90;;;;;;4918459;29;20090;-78
2021/11/15 05:36:28;;;;;;;3.78;2.20;;;8.20;90.90;;;;;;4917547;29;20047;-78
2021/11/15 05:38:54;;;;;;;4.55;2.25;;;8.20;90.90;;;;;;4918106;29;20470;-78
2021/11/15 05:41:20;;;;;;;4.10;2.30;;;8.30;90.90;;;;;;4935390;29;20035;-78
2021/11/15 05:43:45;;;;;;;4.07;2.33;;;8.30;90.90;;;;;;4933173;29;20046;-78
2021/11/15 05:46:11;;;;;;;3.50;1.90;;;8.20;90.90;;;;;;4918253;29;20031;-78
2021/11/15 05:48:37;;;;;;;3.85;2.00;;;8.30;90.90;;;;;;4917934;29;20123;-78
2021/11/15 05:51:03;;;;;;;3.20;1.85;;;8.30;90.90;;;;;;4935320;29;20047;-78
2021/11/15 05:53:30;;;;;;;4.90;2.22;;;8.30;91.20;;;;;;4935288;29;20054;-78
2021/11/15 05:55:56;;;;;;;3.55;1.80;;;8.30;90.90;;;;;;4933297;29;20055;-78
2021/11/15 05:58:22;;;;;;;5.38;2.47;;;8.30;90.90;;;;;;4916366;29;20043;-78
2021/11/15 06:00:48;;;;;;;5.00;2.20;;;8.30;90.90;;;;;;4935083;29;20055;-78
2021/11/15 06:03:15;;;;;;;4.63;1.90;;;8.20;90.90;;;;;;4934623;29;20047;-78
2021/11/15 06:05:41;;;;;;;3.95;1.98;;;8.20;90.90;;;;;;4917500;29;20043;-78
2021/11/15 06:08:07;;;;;;;4.90;2.40;;;8.30;90.90;;;;;;4917621;29;20043;-78
2021/11/15 06:10:33;;;;;;;4.75;2.28;;;8.30;90.90;;;;;;4913121;29;20393;-78
2021/11/15 06:12:59;;;;;;;4.60;2.20;;;8.30;90.90;;;;;;4938269;29;20091;-78
2021/11/15 06:15:24;;;;;;;4.55;2.55;;;8.30;90.90;;;;;;4920658;29;20093;-78
2021/11/15 06:17:51;;;;;;;4.03;2.20;;;8.20;90.90;;;;;;4920998;29;20043;-78
2021/11/15 06:20:18;;;;;;;4.72;2.50;;;8.20;90.90;;;;;;4905014;29;20122;-78
2021/11/15 06:22:45;;;;;;;3.95;2.10;;;8.20;90.90;;;;;;4905108;29;20127;-78
2021/11/15 06:25:13;;;;;;;4.20;2.20;;;8.20;90.90;;;;;;4905302;29;20528;-78
2021/11/15 06:27:40;;;;;;;3.35;2.00;;;8.20;90.90;;;;;;4920990;29;20075;-78
2021/11/15 06:30:08;;;;;;;3.20;1.73;;;8.20;90.90;;;;;;4920599;29;20080;-78
2021/11/15 06:32:34;;;;;;;3.42;2.00;;;8.20;90.90;;;;;;4937926;29;20047;-78
2021/11/15 06:35:00;;;;;;;3.40;1.88;;;8.20;90.90;;;;;;4937476;29;20062;-78
2021/11/15 06:37:26;;;;;;;2.85;1.63;;;8.40;91.00;;;;;;4920762;29;20410;-78
2021/11/15 06:39:52;;;;;;;5.47;2.42;;;8.10;90.90;;;;;;4938422;29;20170;-78
2021/11/15 06:42:18;;;;;;;4.85;2.13;;;8.30;91.00;;;;;;4938110;29;20048;-79
2021/11/15 06:44:44;;;;;;;5.20;2.60;;;8.10;90.90;;;;;;4937499;29;20518;-79
2021/11/15 06:47:09;;;;;;;4.82;2.45;;;8.10;90.90;;;;;;4920249;29;20043;-78
2021/11/15 06:49:36;;;;;;;4.25;2.33;;;8.10;91.00;;;;;;4921041;29;20511;-78
2021/11/15 06:52:02;;;;;;;3.60;1.70;;;8.10;91.00;;;;;;4920760;29;20115;-78
2021/11/15 06:54:28;;;;;;;2.60;1.55;;;8.10;91.00;;;;;;4920532;29;20075;-78
2021/11/15 06:56:54;;;;;;;3.70;1.90;;;8.20;91.00;;;;;;4920342;29;20131;-78
2021/11/15 06:59:20;;;;;;;3.47;1.75;;;8.10;91.00;;;;;;4913170;29;20047;-78
2021/11/15 07:01:46;;;;;;;4.32;1.83;;;8.10;91.00;;;;;;4921478;29;20043;-77
2021/11/15 07:04:12;;;;;;;4.10;1.90;;;8.10;91.00;;;;;;4920709;29;20047;-77
2021/11/15 07:06:40;;;;;;;3.83;2.00;;;8.10;91.00;;;;;;4937167;29;20501;-77
2021/11/15 07:09:07;;;;;;;3.50;1.73;;;8.10;91.00;;;;;;4888841;29;20039;-77
2021/11/15 07:11:35;;;;;;;3.97;1.63;;;8.00;91.00;;;;;;4937661;29;20536;-77
2021/11/15 07:14:02;;;;;;;3.55;1.88;;;8.10;91.00;;;;;;4941817;29;20381;-78
2021/11/15 07:16:28;;;;;;;4.55;2.10;;;8.10;91.00;;;;;;4912313;29;20530;-77
2021/11/15 07:18:54;;;;;;;2.70;1.30;;;8.00;91.00;;;;;;4939782;29;20050;-77
2021/11/15 07:21:21;;;;;;;3.55;1.42;;;8.10;91.00;;;;;;4936926;29;20103;-77
2021/11/15 07:23:47;;;;;;;3.45;1.70;;;8.10;91.00;;;;;;4937415;29;20108;-76
2021/11/15 07:26:13;;;;;;;4.00;1.90;;;8.10;91.00;;;;;;4920380;29;20074;-77
2021/11/15 07:28:39;;;;;;;3.97;1.75;;;8.00;91.00;;;;;;4952436;29;20044;-76
2021/11/15 07:31:05;;;;;;;3.88;2.00;;;8.00;91.00;;;;;;4947868;29;20082;-77
2021/11/15 07:33:31;;;;;;;4.50;1.90;;;8.00;91.00;;;;;;4945872;29;20055;-76
2021/11/15 07:35:57;;;;;;;3.90;1.90;;;8.00;91.00;;;;;;4956812;28;20059;-80
2021/11/15 07:38:23;;;;;;;4.10;2.00;;;7.90;91.00;;;;;;4943618;29;20060;-81
2021/11/15 07:40:50;;;;;;;3.35;1.70;;;7.90;91.00;;;;;;4904241;29;20040;-80
2021/11/15 07:46:59;;;;;;;3.92;1.63;;;7.90;91.00;;;;;;4839355;29;20042;-81
2021/11/15 07:49:24;;;;;;;3.53;1.80;;;7.90;91.00;;;;;;4843155;29;20053;-77
2021/11/15 07:51:50;;;;;;;3.60;1.95;;;7.90;91.00;;;;;;4841328;29;20061;-78
2021/11/15 07:54:16;;;;;;;3.17;1.63;;;7.90;91.00;;;;;;4841467;29;20042;-78
2021/11/15 07:56:44;;;;;;;4.75;2.30;;;7.80;91.00;;;;;;4842803;29;20086;-81
2021/11/15 08:02:22;;;;;;;4.68;2.05;;;7.80;91.10;;;;;;4751717;30;20082;-82
2021/11/15 08:05:22;;;;;;;2.83;1.45;;;7.80;91.10;;;;;;4738944;30;20147;-85
2021/11/15 08:07:48;;;;;;;2.50;1.50;;;7.80;91.10;;;;;;4735088;30;20063;-82
2021/11/15 08:10:30;;;;;;;3.55;1.45;;;7.80;91.10;;;;;;4704197;30;20139;-84
2021/11/15 08:12:57;;;;;;;2.63;1.48;;;7.70;91.10;;;;;;4747303;30;20193;-83
2021/11/15 08:15:25;;;;;;;3.22;1.40;;;7.80;91.10;;;;;;4717047;30;20060;-81
2021/11/15 08:18:13;;;;;;;2.65;1.38;;;7.70;91.10;;;;;;4717329;30;20195;-81
2021/11/15 08:20:40;;;;;;;2.50;1.40;;;7.70;91.00;;;;;;4717803;30;20147;-77
2021/11/15 08:23:09;;;;;;;3.17;1.38;;;7.70;91.00;;;;;;4732840;30;20035;-78
2021/11/15 08:26:06;;;;;;;3.33;1.60;;;7.80;91.00;;;;;;4772237;30;20043;-79
2021/11/15 08:28:32;;;;;;;2.08;1.20;;;7.70;91.00;;;;;;4788043;30;20206;-76
2021/11/15 08:31:03;;;;;;;2.67;1.27;;;7.70;91.00;;;;;;4781993;29;20058;-83
2021/11/15 08:33:29;;;;;;;2.53;1.40;;;7.80;91.00;;;;;;4828760;29;20048;-80
2021/11/15 08:35:56;;;;;;;3.83;1.40;;;7.70;91.00;;;;;;4878335;29;20041;-78
2021/11/15 08:39:23;;;;;;;1.88;0.90;;;7.70;91.00;;;;;;4861925;29;20053;-84
2021/11/15 08:42:28;;;;;;;2.45;1.27;;;7.60;91.00;;;;;;4822723;29;20504;-86
2021/11/15 08:44:55;;;;;;;2.67;1.30;;;7.70;91.10;;;;;;4752676;30;20104;-79
2021/11/15 08:47:22;;;;;;;1.60;0.90;;;7.70;91.00;;;;;;4754591;30;20047;-78
2021/11/15 08:49:48;;;;;;;2.63;1.50;;;7.70;91.00;;;;;;4770414;29;20065;-79
2021/11/15 08:52:14;;;;;;;2.85;1.45;;;7.70;91.00;;;;;;4810141;29;20038;-78
2021/11/15 08:54:41;;;;;;;3.58;1.45;;;7.80;91.00;;;;;;4824392;29;20121;-78
2021/11/15 08:57:07;;;;;;;2.70;1.48;;;7.60;91.00;;;;;;4810332;29;20115;-78
2021/11/15 08:59:33;;;;;;;3.33;1.58;;;7.70;91.00;;;;;;4826812;29;20046;-78
2021/11/15 09:02:00;;;;;;;2.72;1.50;;;7.70;91.00;;;;;;4808109;29;20058;-79
2021/11/15 09:04:26;;;;;;;2.20;1.30;;;7.70;91.00;;;;;;4823983;29;20035;-79
2021/11/15 09:06:52;;;;;;;3.15;1.65;;;7.70;91.00;;;;;;4806449;29;20038;-78
2021/11/15 09:09:19;;;;;;;3.03;1.40;;;7.70;91.00;;;;;;4807989;29;20042;-78
2021/11/15 09:11:48;;;;;;;3.13;1.55;;;7.70;91.00;;;;;;4822581;29;20049;-79
2021/11/15 09:14:15;;;;;;;2.58;1.27;;;7.60;91.00;;;;;;4806077;29;20042;-79
2021/11/15 09:16:42;;;;;;;3.92;1.85;;;7.60;91.00;;;;;;4823806;29;20053;-78
2021/11/15 09:19:09;;;;;;;2.72;1.50;;;7.60;91.00;;;;;;4862883;29;20055;-78
2021/11/15 09:21:34;;;;;;;3.15;1.55;;;7.60;91.10;;;;;;4938318;29;20108;-81
2021/11/15 09:24:01;;;;;;;2.97;1.30;;;7.60;91.40;;;;;;4933801;29;20064;-81
2021/11/15 09:26:44;;;;;;;3.95;1.60;;;7.60;91.10;;;;;;4904689;29;20040;-86
2021/11/15 09:29:11;;;;;;;3.38;1.58;;;7.60;91.10;;;;;;4885345;29;20083;-82
2021/11/15 09:32:04;;;;;;;2.42;1.25;;;7.60;91.10;;;;;;4915232;29;20107;-84
2021/11/15 09:37:45;;;;;;;5.47;1.58;;;7.60;91.10;;;;;;4817838;29;20537;-87
2021/11/15 09:40:12;;;;;;;2.17;1.17;;;7.60;91.10;;;;;;4808731;29;20065;-82
2021/11/15 09:42:40;;;;;;;2.97;1.58;;;7.70;91.10;;;;;;4821995;29;20054;-82
2021/11/15 09:45:07;;;;;;;3.33;1.58;;;7.70;91.10;;;;;;4821462;29;20035;-80
2021/11/15 09:47:36;;;;;;;3.10;1.58;;;7.80;91.10;;;;;;4822068;29;20175;-81
2021/11/15 09:50:03;;;;;;;3.08;1.48;;;7.70;91.10;;;;;;4821965;29;20076;-82
2021/11/15 09:52:29;;;;;;;4.55;2.00;;;7.70;91.10;;;;;;4823445;29;20038;-80
2021/11/15 09:54:55;;;;;;;3.50;1.45;;;7.70;91.10;;;;;;4821181;29;20038;-83
2021/11/15 09:57:24;;;;;;;4.10;1.67;;;7.80;91.20;;;;;;4822116;29;20199;-81
2021/11/15 10:00:01;;;;;;;4.63;1.77;;;7.70;91.20;;;;;;4846093;29;20051;-86
2021/11/15 10:02:34;;;;;;;2.47;1.45;;;7.60;91.20;;;;;;4831691;29;20045;-86
2021/11/15 10:05:00;;;;;;;2.90;1.55;;;7.70;91.20;;;;;;4860864;29;20037;-81
2021/11/15 10:07:41;;;;;;;2.17;1.15;;;7.60;91.20;;;;;;4880346;29;20044;-82
2021/11/15 10:10:30;;;;;;;2.92;1.50;;;7.60;91.20;;;;;;4898735;29;20048;-84
2021/11/15 10:13:09;;;;;;;3.50;1.50;;;7.70;91.20;;;;;;4899255;29;20080;-82
2021/11/15 10:15:48;;;;;;;2.47;1.25;;;7.70;91.30;;;;;;4899652;29;20048;-82
2021/11/15 10:18:32;;;;;;;2.70;1.38;;;7.60;91.20;;;;;;4867106;29;20049;-82
2021/11/15 10:20:59;;;;;;;2.35;1.10;;;7.70;91.20;;;;;;4874439;29;20049;-83
2021/11/15 10:23:32;;;;;;;3.55;1.50;;;7.60;91.20;;;;;;4861066;29;20496;-82
2021/11/15 10:26:00;;;;;;;2.85;1.20;;;7.70;91.20;;;;;;4877295;29;20128;-82
2021/11/15 10:28:30;;;;;;;2.85;1.40;;;7.80;91.30;;;;;;4876048;29;20057;-78
2021/11/15 10:30:56;;;;;;;3.00;1.33;;;7.60;91.20;;;;;;4876127;29;20099;-82
2021/11/15 10:33:34;;;;;;;3.42;1.50;;;7.60;91.30;;;;;;4876379;29;20080;-80
2021/11/15 10:36:00;;;;;;;2.72;1.30;;;7.50;91.20;;;;;;4892974;29;20518;-79
2021/11/15 10:38:40;;;;;;;4.80;1.60;;;7.50;91.20;;;;;;4898082;29;20044;-78
2021/11/15 10:41:16;;;;;;;3.70;1.60;;;7.50;91.20;;;;;;4900322;29;20070;-84
2021/11/15 10:43:59;;;;;;;3.50;1.50;;;7.50;91.30;;;;;;4884461;29;20591;-80
2021/11/15 10:46:44;;;;;;;3.25;1.23;;;7.60;91.30;;;;;;4899279;29;20529;-83
2021/11/15 10:49:19;;;;;;;3.65;1.25;;;7.50;91.30;;;;;;4895948;29;20585;-88
2021/11/15 10:52:06;;;;;;;2.92;1.40;;;7.50;91.30;;;;;;4894723;29;20644;-83
2021/11/15 10:54:48;;;;;;;2.53;1.20;;;7.50;91.30;;;;;;4915729;29;20063;-82
2021/11/15 10:57:27;;;;;;;2.38;1.30;;;7.60;91.30;;;;;;4918363;29;20050;-82
2021/11/15 11:00:18;;;;;;;2.08;1.00;;;7.50;91.20;;;;;;4902102;29;20056;-82
2021/11/15 11:02:48;;;;;;;3.13;1.40;;;7.50;91.30;;;;;;4887549;29;20032;-84
2021/11/15 11:05:30;;;;;;;1.92;1.08;;;7.50;91.30;;;;;;4886492;29;20131;-83
2021/11/15 11:08:07;;;;;;;3.40;1.42;;;7.60;91.30;;;;;;4923056;29;20119;-78
2021/11/15 11:10:42;;;;;;;2.97;1.30;;;7.60;91.30;;;;;;4917049;29;20175;-83
2021/11/15 11:13:14;;;;;;;4.18;1.67;;;7.50;91.30;;;;;;4901162;29;20127;-84
2021/11/15 11:15:44;;;;;;;3.88;1.50;;;7.50;91.40;;;;;;4917912;29;20160;-83
2021/11/15 11:18:34;;;;;;;2.38;1.38;;;7.40;91.40;;;;;;4916252;29;20089;-81
2021/11/15 11:24:16;;;;;;;1.98;1.10;;;7.40;91.40;;;;;;4917602;29;20438;-82
2021/11/15 11:26:51;;;;;;;3.85;1.50;;;7.50;91.40;;;;;;4923462;29;20071;-81
2021/11/15 11:29:22;;;;;;;4.10;1.60;;;7.50;91.40;;;;;;4920475;29;20051;-81
2021/11/15 11:31:50;;;;;;;3.80;1.58;;;7.40;91.40;;;;;;4891069;29;20126;-79
2021/11/15 11:34:17;;;;;;;2.80;1.45;;;7.40;91.40;;;;;;4922709;29;20040;-81
2021/11/15 11:36:44;;;;;;;3.85;1.42;;;7.40;91.40;;;;;;4890754;29;20040;-80
2021/11/15 11:39:11;;;;;;;2.72;1.20;;;7.40;91.40;;;;;;4937863;29;20075;-79
2021/11/15 11:41:39;;;;;;;3.33;1.40;;;7.40;91.40;;;;;;4920573;29;20039;-83
2021/11/15 11:44:08;;;;;;;3.00;1.58;;;7.40;91.40;;;;;;4890016;29;20032;-85
2021/11/15 11:46:42;;;;;;;3.33;1.60;;;7.40;91.40;;;;;;4910708;29;20150;-83
2021/11/15 11:49:20;;;;;;;3.53;1.65;;;7.50;91.40;;;;;;4921107;29;20514;-81
2021/11/15 11:51:49;;;;;;;2.40;1.10;;;7.40;91.40;;;;;;4939000;29;20482;-81
2021/11/15 11:54:22;;;;;;;3.28;1.42;;;7.40;91.40;;;;;;4938987;29;20098;-82
2021/11/15 11:57:07;;;;;;;2.90;1.27;;;7.40;91.40;;;;;;4895457;29;20036;-82
2021/11/15 11:59:43;;;;;;;2.30;1.20;;;7.40;91.40;;;;;;4945404;29;20069;-81
2021/11/15 12:02:12;;;;;;;3.67;1.30;;;7.40;91.40;;;;;;4905923;29;20043;-81
2021/11/15 12:04:49;;;;;;;2.53;1.30;;;7.40;91.40;;;;;;4920150;29;20079;-80
2021/11/15 12:07:24;;;;;;;2.72;1.08;;;7.40;91.40;;;;;;4936189;29;20123;-79
2021/11/15 12:09:51;;;;;;;2.47;1.33;;;7.60;91.40;;;;;;4946921;29;20111;-83
2021/11/15 12:12:45;;;;;;;2.65;1.10;;;7.50;91.40;;;;;;4927858;29;20103;-84
2021/11/15 12:15:30;;;;;;;2.75;1.13;;;7.50;91.40;;;;;;4925858;29;20517;-83
2021/11/15 12:18:24;;;;;;;1.90;0.95;;;7.40;91.30;;;;;;4903864;29;20094;-83
2021/11/15 12:21:09;;;;;;;2.95;1.00;;;7.50;91.30;;;;;;4904146;29;20360;-82
2021/11/15 12:23:42;;;;;;;2.92;1.40;;;7.50;91.30;;;;;;4934091;29;20046;-83
2021/11/15 12:26:12;;;;;;;3.80;1.65;;;7.50;91.30;;;;;;4902477;29;20043;-82
2021/11/15 12:28:42;;;;;;;3.08;1.48;;;7.30;91.30;;;;;;4920457;29;20063;-82
2021/11/15 12:31:10;;;;;;;2.67;1.40;;;7.50;91.40;;;;;;4937129;29;20044;-80
2021/11/15 12:33:38;;;;;;;2.40;1.27;;;7.30;91.40;;;;;;4919829;29;20083;-80
2021/11/15 12:36:25;;;;;;;3.92;1.33;;;7.40;91.40;;;;;;4935439;29;20055;-81
2021/11/15 12:39:01;;;;;;;2.90;1.25;;;7.40;91.40;;;;;;4933559;29;20055;-84
2021/11/15 12:41:32;;;;;;;3.67;1.60;;;7.30;91.40;;;;;;4900708;29;20036;-85
2021/11/15 12:44:34;;;;;;;3.45;1.40;;;7.30;91.40;;;;;;4897373;29;20094;-82
2021/11/15 12:47:15;;;;;;;5.53;1.98;;;7.30;91.40;;;;;;4912915;29;20036;-81
2021/11/15 12:49:54;;;;;;;2.80;1.42;;;7.30;91.40;;;;;;4915657;29;20067;-80
2021/11/15 12:52:24;;;;;;;2.55;1.10;;;7.30;91.40;;;;;;4916330;29;20104;-81
2021/11/15 12:55:08;;;;;;;2.40;1.20;;;7.30;91.40;;;;;;4916305;29;20467;-82
2021/11/15 12:57:38;;;;;;;2.45;1.30;;;7.30;91.40;;;;;;4913079;29;20044;-82
2021/11/15 13:00:16;;;;;;;2.03;1.02;;;7.40;91.40;;;;;;4896871;29;20044;-80
2021/11/15 13:02:46;;;;;;;2.97;1.33;;;7.40;91.40;;;;;;4915860;29;20040;-82
2021/11/15 13:05:12;;;;;;;4.60;1.50;;;7.40;91.40;;;;;;4911446;29;20044;-82
2021/11/15 13:07:37;;;;;;;4.13;1.60;;;7.40;91.40;;;;;;4897735;29;20150;-83
2021/11/15 13:10:37;;;;;;;2.35;1.30;;;7.30;91.40;;;;;;4915108;29;20055;-86
2021/11/15 13:13:04;;;;;;;3.58;1.63;;;7.30;91.40;;;;;;4874099;29;20449;-82
2021/11/15 13:15:30;;;;;;;3.38;1.80;;;7.30;91.40;;;;;;4847596;29;20093;-82
2021/11/15 13:17:57;;;;;;;4.10;1.67;;;7.30;91.40;;;;;;4863116;29;20127;-85
2021/11/15 13:21:19;;;;;;;2.85;1.48;;;7.40;91.40;;;;;;4862564;29;20053;-88
2021/11/15 13:23:47;;;;;;;3.78;1.42;;;7.40;91.30;;;;;;4749738;30;20052;-82